createdAt,value
2022-09-18T00:00:35.844Z,22.02
2022-09-18T00:03:41.594Z,21.15
2022-09-18T00:06:50.765Z,22.40
2022-09-18T00:09:56.663Z,22.55
2022-09-18T00:13:03.052Z,21.65
2022-09-18T00:16:11.783Z,22.60
2022-09-18T00:19:17.132Z,23.70
2022-09-18T00:22:23.714Z,22.13
2022-09-18T00:25:30.269Z,22.90
2022-09-18T00:28:37.213Z,23.30
2022-09-18T00:31:46.302Z,22.30
2022-09-18T00:34:53.120Z,23.60
2022-09-18T00:38:01.183Z,25.05
2022-09-18T00:41:06.504Z,23.45
2022-09-18T00:44:49.273Z,22.00
2022-09-18T00:48:00.491Z,23.32
2022-09-18T00:51:07.117Z,25.35
2022-09-18T00:54:42.888Z,23.52
2022-09-18T00:57:50.577Z,22.87
2022-09-18T01:00:57.068Z,24.50
2022-09-18T01:04:03.009Z,24.40
2022-09-18T01:07:34.303Z,24.02
2022-09-18T01:10:53.819Z,24.23
2022-09-18T01:14:04.962Z,23.30
2022-09-18T01:17:29.417Z,24.43
2022-09-18T01:21:02.618Z,25.43
2022-09-18T01:24:31.447Z,23.35
2022-09-18T01:27:58.319Z,24.63
2022-09-18T01:31:03.966Z,24.85
2022-09-18T01:34:23.215Z,26.30
2022-09-18T01:38:04.410Z,25.57
2022-09-18T01:41:29.102Z,26.10
2022-09-18T01:44:43.079Z,25.97
2022-09-18T01:47:57.383Z,24.98
2022-09-18T01:51:11.939Z,25.25
2022-09-18T01:54:29.770Z,25.60
2022-09-18T01:58:00.988Z,26.07
2022-09-18T02:01:10.039Z,25.35
2022-09-18T02:04:20.423Z,25.60
2022-09-18T02:07:36.063Z,26.73
2022-09-18T02:10:44.334Z,27.02
2022-09-18T02:14:05.416Z,26.62
2022-09-18T02:17:27.595Z,27.20
2022-09-18T02:20:40.418Z,29.37
2022-09-18T02:23:46.395Z,29.10
2022-09-18T02:26:53.659Z,28.73
2022-09-18T02:30:01.146Z,28.98
2022-09-18T02:33:10.965Z,30.12
2022-09-18T02:36:57.288Z,29.25
2022-09-18T02:40:22.353Z,29.00
2022-09-18T02:44:09.463Z,29.48
2022-09-18T02:47:39.604Z,29.32
2022-09-18T02:51:22.452Z,29.92
2022-09-18T02:54:43.791Z,30.23
2022-09-18T02:57:58.537Z,29.37
2022-09-18T03:01:06.139Z,29.37
2022-09-18T03:04:19.235Z,29.02
2022-09-18T03:07:39.357Z,30.10
2022-09-18T03:10:45.535Z,28.87
2022-09-18T03:13:53.947Z,30.20
2022-09-18T03:17:01.135Z,29.12
2022-09-18T03:20:07.862Z,28.47
2022-09-18T03:23:14.047Z,29.18
2022-09-18T03:26:21.610Z,30.10
2022-09-18T03:29:28.491Z,28.30
2022-09-18T03:32:33.344Z,28.75
2022-09-18T03:35:41.053Z,26.97
2022-09-18T03:38:49.014Z,26.37
2022-09-18T03:41:56.230Z,24.30
2022-09-18T03:45:04.381Z,23.57
2022-09-18T03:48:10.781Z,23.32
2022-09-18T03:51:17.242Z,21.85
2022-09-18T03:54:23.834Z,21.17
2022-09-18T03:57:32.954Z,21.25
2022-09-18T04:00:55.749Z,21.12
2022-09-18T04:04:03.659Z,20.68
2022-09-18T04:07:12.989Z,19.92
2022-09-18T04:10:39.236Z,19.20
2022-09-18T04:13:48.982Z,17.87
2022-09-18T04:16:55.975Z,17.35
2022-09-18T04:20:02.208Z,16.05
2022-09-18T04:23:08.809Z,15.60
2022-09-18T04:26:16.757Z,15.63
2022-09-18T04:29:25.289Z,15.53
2022-09-18T04:32:33.122Z,14.87
2022-09-18T04:35:39.093Z,14.63
2022-09-18T04:38:46.638Z,14.55
2022-09-18T04:41:56.614Z,14.13
2022-09-18T04:45:02.319Z,13.48
2022-09-18T04:48:08.798Z,14.18
2022-09-18T04:51:14.048Z,14.35
2022-09-18T04:54:20.952Z,14.78
2022-09-18T04:57:26.550Z,14.63
2022-09-18T05:00:35.634Z,16.73
2022-09-18T05:03:42.525Z,17.30
2022-09-18T05:06:51.166Z,18.07
2022-09-18T05:09:57.363Z,18.20
2022-09-18T05:13:05.931Z,19.98
2022-09-18T05:16:13.443Z,21.35
2022-09-18T05:19:22.973Z,22.00
2022-09-18T05:22:30.431Z,22.07
2022-09-18T05:25:38.788Z,22.30
2022-09-18T05:28:48.255Z,24.27
2022-09-18T05:31:55.389Z,23.80
2022-09-18T05:35:03.479Z,25.55
2022-09-18T05:38:11.709Z,25.10
2022-09-18T05:41:17.097Z,27.48
2022-09-18T05:44:23.914Z,27.22
2022-09-18T05:47:30.230Z,26.68
2022-09-18T05:50:36.350Z,26.95
2022-09-18T05:53:44.169Z,27.87
2022-09-18T05:56:54.286Z,26.97
2022-09-18T06:00:02.576Z,28.10
2022-09-18T06:03:20.049Z,28.25
2022-09-18T06:06:28.585Z,27.85
2022-09-18T06:09:34.486Z,29.35
2022-09-18T06:12:39.466Z,29.40
2022-09-18T06:15:45.283Z,28.80
2022-09-18T06:18:52.694Z,29.35
2022-09-18T06:21:58.213Z,30.57
2022-09-18T06:25:07.070Z,29.72
2022-09-18T06:28:13.903Z,30.65
2022-09-18T06:31:19.659Z,29.60
2022-09-18T06:34:38.648Z,30.00
2022-09-18T06:37:45.118Z,31.17
2022-09-18T06:41:06.600Z,31.17
2022-09-18T06:44:15.601Z,32.17
2022-09-18T06:47:22.774Z,32.33
2022-09-18T06:50:29.771Z,32.85
2022-09-18T06:53:35.627Z,32.80
2022-09-18T06:56:41.390Z,32.48
2022-09-18T06:59:48.619Z,34.27
2022-09-18T07:02:55.248Z,33.88
2022-09-18T07:06:16.631Z,33.67
2022-09-18T07:09:25.760Z,32.60
2022-09-18T07:12:36.301Z,32.45
2022-09-18T07:15:43.483Z,31.60
2022-09-18T07:18:48.373Z,32.23
2022-09-18T07:21:54.995Z,30.97
2022-09-18T07:25:05.216Z,31.60
2022-09-18T07:28:20.892Z,30.60
2022-09-18T07:31:31.081Z,31.17
2022-09-18T07:34:38.905Z,29.77
2022-09-18T07:37:46.681Z,29.27
2022-09-18T07:40:54.636Z,30.08
2022-09-18T07:44:06.971Z,30.32
2022-09-18T07:47:13.714Z,28.42
2022-09-18T07:50:23.119Z,28.75
2022-09-18T07:53:28.943Z,26.52
2022-09-18T07:56:37.202Z,27.40
2022-09-18T07:59:44.302Z,26.40
2022-09-18T08:02:52.665Z,25.10
2022-09-18T08:06:01.906Z,25.97
2022-09-18T08:09:08.600Z,26.50
2022-09-18T08:12:20.039Z,23.85
2022-09-18T08:15:32.694Z,23.70
2022-09-18T08:18:45.993Z,22.62
2022-09-18T08:22:12.115Z,22.60
2022-09-18T08:25:22.843Z,23.73
2022-09-18T08:28:27.918Z,21.90
2022-09-18T08:31:37.062Z,23.62
2022-09-18T08:34:43.629Z,23.38
2022-09-18T08:37:50.511Z,23.95
2022-09-18T08:41:16.486Z,24.00
2022-09-18T08:44:33.506Z,22.52
2022-09-18T08:47:47.343Z,21.90
2022-09-18T08:50:54.955Z,21.73
2022-09-18T08:54:05.379Z,22.90
2022-09-18T08:57:35.360Z,22.02
2022-09-18T09:00:32.919Z,20.65
2022-09-18T09:03:50.374Z,21.23
2022-09-18T09:07:09.329Z,19.27
2022-09-18T09:10:47.920Z,19.75
2022-09-18T09:14:56.624Z,18.90
2022-09-18T09:18:09.780Z,16.70
2022-09-18T09:21:34.394Z,18.17
2022-09-18T09:24:47.394Z,15.80
2022-09-18T09:28:35.170Z,14.83
2022-09-18T09:32:11.567Z,14.53
2022-09-18T09:35:53.618Z,14.00
2022-09-18T09:39:24.333Z,13.45
2022-09-18T09:42:52.831Z,14.07
2022-09-18T09:46:05.935Z,13.93
2022-09-18T09:49:38.979Z,11.78
2022-09-18T09:52:47.877Z,11.55
2022-09-18T09:56:38.853Z,11.28
2022-09-18T09:59:52.664Z,10.00
2022-09-18T10:03:39.388Z,9.55
2022-09-18T10:06:58.150Z,9.90
2022-09-18T10:10:36.363Z,10.15
2022-09-18T10:13:54.241Z,9.80
2022-09-18T10:17:03.563Z,9.65
2022-09-18T10:20:09.545Z,10.23
2022-09-18T10:23:19.714Z,9.98
2022-09-18T10:26:35.571Z,9.30
2022-09-18T10:29:44.844Z,9.98
2022-09-18T10:32:53.996Z,9.20
2022-09-18T10:36:05.110Z,9.83
2022-09-18T10:39:14.269Z,7.87
2022-09-18T10:42:20.699Z,7.30
2022-09-18T10:45:40.382Z,7.30
2022-09-18T10:48:49.284Z,6.53
2022-09-18T10:51:55.558Z,6.58
2022-09-18T10:55:34.805Z,5.70
2022-09-18T10:58:45.807Z,5.20
2022-09-18T11:01:52.299Z,5.35
2022-09-18T11:05:02.033Z,5.42
2022-09-18T11:08:13.456Z,4.80
2022-09-18T11:11:22.035Z,4.80
2022-09-18T11:14:41.915Z,4.28
2022-09-18T11:17:54.632Z,4.05
2022-09-18T11:21:01.747Z,3.50
2022-09-18T11:24:25.540Z,3.42
2022-09-18T11:27:37.494Z,3.35
2022-09-18T11:30:51.318Z,2.67
2022-09-18T11:34:11.352Z,2.20
2022-09-18T11:37:22.909Z,2.12
2022-09-18T11:40:46.297Z,2.40
2022-09-18T11:43:55.487Z,2.02
2022-09-18T11:47:24.567Z,2.35
2022-09-18T11:50:39.464Z,1.70
2022-09-18T11:53:55.297Z,1.82
2022-09-18T11:57:06.155Z,1.55
2022-09-18T12:00:25.525Z,2.30
2022-09-18T12:03:46.043Z,1.75
2022-09-18T12:07:39.920Z,1.87
2022-09-18T12:10:59.684Z,1.60
2022-09-18T12:14:20.455Z,1.55
2022-09-18T12:18:11.584Z,1.85
2022-09-18T12:21:30.199Z,1.72
2022-09-18T12:24:35.476Z,1.65
2022-09-18T12:28:10.801Z,2.05
2022-09-18T12:31:32.539Z,1.47
2022-09-18T12:34:59.023Z,1.40
2022-09-18T12:38:37.818Z,1.87
2022-09-18T12:42:16.973Z,1.27
2022-09-18T12:45:46.805Z,1.50
2022-09-18T12:49:30.330Z,1.10
2022-09-18T12:53:08.996Z,1.17
2022-09-18T12:56:38.948Z,1.10
2022-09-18T13:00:12.358Z,1.65
2022-09-18T13:03:28.722Z,1.50
2022-09-18T13:06:41.851Z,1.50
2022-09-18T13:10:00.277Z,1.55
2022-09-18T13:13:27.970Z,1.10
2022-09-18T13:16:50.410Z,1.50
2022-09-18T13:26:17.382Z,1.50
2022-09-18T13:30:05.549Z,1.20
2022-09-18T13:33:14.141Z,1.50
2022-09-18T13:36:21.658Z,3.58
2022-09-18T13:40:06.559Z,2.33
2022-09-18T13:42:53.949Z,2.90
2022-09-18T13:46:05.934Z,1.95
2022-09-18T13:49:08.974Z,2.27
2022-09-18T13:52:52.898Z,1.75
2022-09-18T13:56:04.491Z,1.85
2022-09-18T13:59:12.193Z,1.70
2022-09-18T14:02:22.972Z,1.57
2022-09-18T14:05:57.570Z,1.40
2022-09-18T14:09:04.700Z,1.50
2022-09-18T14:12:10.817Z,2.20
2022-09-18T14:15:25.658Z,1.82
2022-09-18T14:18:33.672Z,2.10
2022-09-18T14:21:43.107Z,2.67
2022-09-18T14:25:07.501Z,2.35
2022-09-18T14:28:16.072Z,1.87
2022-09-18T14:31:28.684Z,2.37
2022-09-18T14:34:50.545Z,3.00
2022-09-18T14:37:58.206Z,2.67
2022-09-18T14:41:32.481Z,2.37
2022-09-18T14:44:40.984Z,2.40
2022-09-18T14:47:46.571Z,2.40
2022-09-18T14:50:53.024Z,2.75
2022-09-18T14:54:01.419Z,2.52
2022-09-18T14:57:08.462Z,2.55
2022-09-18T15:00:16.757Z,2.98
2022-09-18T15:03:34.834Z,3.10
2022-09-18T15:06:56.329Z,3.47
2022-09-18T15:10:06.470Z,2.87
2022-09-18T15:13:13.730Z,2.80
2022-09-18T15:16:19.972Z,3.33
2022-09-18T15:19:31.027Z,3.22
2022-09-18T15:22:36.500Z,3.67
2022-09-18T15:25:46.510Z,3.58
2022-09-18T15:28:53.188Z,3.90
2022-09-18T15:31:59.850Z,4.12
2022-09-18T15:35:04.967Z,5.75
2022-09-18T15:38:16.984Z,5.70
2022-09-18T15:41:37.747Z,4.87
2022-09-18T15:45:08.579Z,5.03
2022-09-18T15:48:16.795Z,5.75
2022-09-18T15:51:41.251Z,6.15
2022-09-18T15:54:46.833Z,5.95
2022-09-18T15:57:53.373Z,4.47
2022-09-18T16:01:00.894Z,5.65
2022-09-18T16:04:34.229Z,5.20
2022-09-18T16:07:41.354Z,3.87
2022-09-18T16:10:58.514Z,4.20
2022-09-18T16:14:04.631Z,3.67
2022-09-18T16:17:11.603Z,3.60
2022-09-18T16:20:45.121Z,3.22
2022-09-18T16:24:06.965Z,2.62
2022-09-18T16:27:23.689Z,2.60
2022-09-18T16:30:29.074Z,2.20
2022-09-18T16:33:39.346Z,2.87
2022-09-18T16:36:50.215Z,1.70
2022-09-18T16:39:56.460Z,1.60
2022-09-18T16:43:05.030Z,1.40
2022-09-18T16:46:12.050Z,1.55
2022-09-18T16:49:16.881Z,1.65
2022-09-18T16:52:22.857Z,1.10
2022-09-18T16:55:29.089Z,1.92
2022-09-18T16:58:33.875Z,1.50
2022-09-18T17:01:54.270Z,1.25
2022-09-18T17:04:48.399Z,1.57
2022-09-18T17:07:54.276Z,2.00
2022-09-18T17:10:59.282Z,1.30
2022-09-18T17:14:06.476Z,0.78
2022-09-18T17:17:13.857Z,1.90
2022-09-18T17:20:23.943Z,0.90
2022-09-18T17:23:30.490Z,0.93
2022-09-18T17:26:38.605Z,0.70
2022-09-18T17:29:46.061Z,0.70
2022-09-18T17:32:50.646Z,0.53
2022-09-18T17:35:56.664Z,0.53
2022-09-18T17:39:02.893Z,0.50
2022-09-18T17:42:10.410Z,0.55
2022-09-18T17:45:15.293Z,0.70
2022-09-18T17:48:21.036Z,0.60
2022-09-18T17:51:30.006Z,3.58
2022-09-18T17:54:36.112Z,1.60
2022-09-18T17:57:43.921Z,0.85
2022-09-18T18:00:52.402Z,0.65
2022-09-18T18:03:58.644Z,0.60
2022-09-18T18:07:04.159Z,0.75
2022-09-18T18:10:09.388Z,0.68
2022-09-18T18:13:16.004Z,0.40
2022-09-18T18:16:24.180Z,0.80
2022-09-18T18:19:31.202Z,0.60
2022-09-18T18:22:36.903Z,0.80
2022-09-18T18:25:44.850Z,0.50
2022-09-18T18:28:51.318Z,1.30
2022-09-18T18:31:58.314Z,0.60
2022-09-18T18:35:03.884Z,1.40
2022-09-18T18:38:09.787Z,1.62
2022-09-18T18:41:16.968Z,1.50
2022-09-18T18:44:26.327Z,0.80
2022-09-18T18:47:35.734Z,0.70
2022-09-18T18:50:43.024Z,1.42
2022-09-18T18:53:48.468Z,0.60
2022-09-18T18:56:55.039Z,0.53
2022-09-18T19:00:03.849Z,0.90
2022-09-18T19:03:10.634Z,0.60
2022-09-18T19:06:16.675Z,0.78
2022-09-18T19:09:35.484Z,0.72
2022-09-18T19:12:41.556Z,0.78
2022-09-18T19:15:47.192Z,1.40
2022-09-18T19:18:53.631Z,0.80
2022-09-18T19:22:00.041Z,0.60
2022-09-18T19:25:08.080Z,0.70
2022-09-18T19:28:17.091Z,0.60
2022-09-18T19:31:24.463Z,0.55
2022-09-18T19:34:34.902Z,0.65
2022-09-18T19:37:43.804Z,1.05
2022-09-18T19:40:52.916Z,0.70
2022-09-18T19:43:59.186Z,0.50
2022-09-18T19:47:05.411Z,0.55
2022-09-18T19:50:13.365Z,0.60
2022-09-18T19:53:20.299Z,0.55
2022-09-18T19:56:42.606Z,0.60
2022-09-18T19:59:35.534Z,1.25
2022-09-18T20:02:43.812Z,0.60
2022-09-18T20:05:52.641Z,0.70
2022-09-18T20:08:58.945Z,0.47
2022-09-18T20:12:05.355Z,0.33
2022-09-18T20:15:12.239Z,0.40
2022-09-18T20:18:20.973Z,0.50
2022-09-18T20:21:30.179Z,0.70
2022-09-18T20:24:36.495Z,0.50
2022-09-18T20:27:44.018Z,0.30
2022-09-18T20:30:50.854Z,0.57
2022-09-18T20:33:57.427Z,0.30
2022-09-18T20:37:06.497Z,0.40
2022-09-18T20:40:14.371Z,0.42
2022-09-18T20:43:20.504Z,0.60
2022-09-18T20:46:29.108Z,0.82
2022-09-18T20:49:36.572Z,0.60
2022-09-18T20:52:43.493Z,0.68
2022-09-18T20:55:53.400Z,0.28
2022-09-18T20:58:59.179Z,0.70
2022-09-18T21:02:05.778Z,0.45
2022-09-18T21:05:12.603Z,0.70
2022-09-18T21:08:18.549Z,0.40
2022-09-18T21:11:30.331Z,0.40
2022-09-18T21:14:36.932Z,0.70
2022-09-18T21:17:45.018Z,0.50
2022-09-18T21:20:51.904Z,0.40
2022-09-18T21:24:04.060Z,0.40
2022-09-18T21:27:13.766Z,0.50
2022-09-18T21:30:23.310Z,0.35
2022-09-18T21:33:32.423Z,0.28
2022-09-18T21:36:41.838Z,0.90
2022-09-18T21:39:46.449Z,0.33
2022-09-18T21:42:55.993Z,0.40
2022-09-18T21:46:04.952Z,0.70
2022-09-18T21:49:12.859Z,0.40
2022-09-18T21:52:22.091Z,0.70
2022-09-18T21:55:27.121Z,0.40
2022-09-18T21:58:35.276Z,0.60
2022-09-18T22:01:44.792Z,0.40
2022-09-18T22:04:51.401Z,0.40
2022-09-18T22:07:56.387Z,0.50
2022-09-18T22:11:02.966Z,0.30
2022-09-18T22:14:10.690Z,0.60
2022-09-18T22:17:20.514Z,0.50
2022-09-18T22:20:27.466Z,0.50
2022-09-18T22:23:33.815Z,0.45
2022-09-18T22:26:41.351Z,0.50
2022-09-18T22:29:48.452Z,0.40
2022-09-18T22:32:54.456Z,0.60
2022-09-18T22:36:00.604Z,0.70
2022-09-18T22:39:07.598Z,0.60
2022-09-18T22:42:13.706Z,0.60
2022-09-18T22:45:25.072Z,0.55
2022-09-18T22:48:30.386Z,1.22
2022-09-18T22:51:38.531Z,0.80
2022-09-18T22:54:45.524Z,0.62
2022-09-18T22:57:45.236Z,0.70
2022-09-18T23:00:31.856Z,0.72
2022-09-18T23:03:24.456Z,0.70
2022-09-18T23:06:17.264Z,0.90
2022-09-18T23:09:23.551Z,0.88
2022-09-18T23:12:29.079Z,1.17
2022-09-18T23:15:35.019Z,1.12
2022-09-18T23:18:40.098Z,1.20
2022-09-18T23:21:47.294Z,1.10
2022-09-18T23:24:56.750Z,1.10
2022-09-18T23:28:06.456Z,1.00
2022-09-18T23:31:14.693Z,0.93
2022-09-18T23:34:27.779Z,0.80
2022-09-18T23:37:33.596Z,0.70
2022-09-18T23:40:40.244Z,0.80
2022-09-18T23:43:47.382Z,0.70
2022-09-18T23:46:53.199Z,1.00
2022-09-18T23:50:00.322Z,0.88
2022-09-18T23:53:07.374Z,0.70
2022-09-18T23:56:23.402Z,0.75
2022-09-18T23:59:29.351Z,0.60
